sensor_id;sensor_type;location;lat;lon;timestamp;P1;durP1;ratioP1;P2;durP2;ratioP2
8409;SDS011;4242;53.670;10.080;2022-09-09T00:03:36;32.17;;;25.60;;
8409;SDS011;4242;53.670;10.080;2022-09-09T00:06:08;37.60;;;27.47;;
8409;SDS011;4242;53.670;10.080;2022-09-09T00:08:43;37.20;;;28.10;;
8409;SDS011;4242;53.670;10.080;2022-09-09T00:11:12;40.77;;;28.67;;
8409;SDS011;4242;53.670;10.080;2022-09-09T00:13:48;36.90;;;28.70;;
8409;SDS011;4242;53.670;10.080;2022-09-09T00:16:21;42.07;;;31.27;;
8409;SDS011;4242;53.670;10.080;2022-09-09T00:18:57;40.83;;;29.57;;
8409;SDS011;4242;53.670;10.080;2022-09-09T00:23:57;43.63;;;31.27;;
8409;SDS011;4242;53.670;10.080;2022-09-09T00:26:39;89.03;;;31.03;;
8409;SDS011;4242;53.670;10.080;2022-09-09T00:31:33;43.30;;;31.10;;
8409;SDS011;4242;53.670;10.080;2022-09-09T00:34:02;41.23;;;31.43;;
8409;SDS011;4242;53.670;10.080;2022-09-09T00:36:29;40.67;;;31.17;;
8409;SDS011;4242;53.670;10.080;2022-09-09T00:38:59;68.47;;;32.93;;
8409;SDS011;4242;53.670;10.080;2022-09-09T00:41:31;46.97;;;31.97;;
8409;SDS011;4242;53.670;10.080;2022-09-09T00:54:19;49.93;;;35.77;;
8409;SDS011;4242;53.670;10.080;2022-09-09T00:56:53;47.27;;;33.70;;
8409;SDS011;4242;53.670;10.080;2022-09-09T00:59:32;52.27;;;36.23;;
8409;SDS011;4242;53.670;10.080;2022-09-09T01:02:03;49.30;;;34.00;;
8409;SDS011;4242;53.670;10.080;2022-09-09T01:04:34;55.10;;;35.80;;
8409;SDS011;4242;53.670;10.080;2022-09-09T01:07:16;55.03;;;35.40;;
8409;SDS011;4242;53.670;10.080;2022-09-09T01:09:57;55.37;;;36.80;;
8409;SDS011;4242;53.670;10.080;2022-09-09T01:12:33;54.97;;;35.37;;
8409;SDS011;4242;53.670;10.080;2022-09-09T01:17:40;46.03;;;31.80;;
8409;SDS011;4242;53.670;10.080;2022-09-09T01:20:12;50.20;;;33.40;;
8409;SDS011;4242;53.670;10.080;2022-09-09T01:27:42;43.47;;;30.00;;
8409;SDS011;4242;53.670;10.080;2022-09-09T01:30:10;52.97;;;29.40;;
8409;SDS011;4242;53.670;10.080;2022-09-09T01:32:41;42.87;;;29.40;;
8409;SDS011;4242;53.670;10.080;2022-09-09T01:35:09;39.17;;;28.63;;
8409;SDS011;4242;53.670;10.080;2022-09-09T01:37:37;35.93;;;25.87;;
8409;SDS011;4242;53.670;10.080;2022-09-09T01:40:03;37.63;;;25.63;;
8409;SDS011;4242;53.670;10.080;2022-09-09T01:42:29;36.37;;;24.60;;
8409;SDS011;4242;53.670;10.080;2022-09-09T01:44:55;35.40;;;25.20;;
8409;SDS011;4242;53.670;10.080;2022-09-09T01:47:21;31.43;;;23.97;;
8409;SDS011;4242;53.670;10.080;2022-09-09T01:49:47;30.57;;;23.40;;
8409;SDS011;4242;53.670;10.080;2022-09-09T01:52:13;31.67;;;24.17;;
8409;SDS011;4242;53.670;10.080;2022-09-09T01:54:39;28.20;;;22.90;;
8409;SDS011;4242;53.670;10.080;2022-09-09T01:57:25;36.03;;;24.13;;
8409;SDS011;4242;53.670;10.080;2022-09-09T02:00:06;27.50;;;22.97;;
8409;SDS011;4242;53.670;10.080;2022-09-09T02:07:48;28.27;;;22.47;;
8409;SDS011;4242;53.670;10.080;2022-09-09T02:10:21;30.80;;;23.33;;
8409;SDS011;4242;53.670;10.080;2022-09-09T02:13:11;37.23;;;23.17;;
8409;SDS011;4242;53.670;10.080;2022-09-09T02:15:40;32.93;;;23.43;;
8409;SDS011;4242;53.670;10.080;2022-09-09T02:18:08;29.97;;;22.40;;
8409;SDS011;4242;53.670;10.080;2022-09-09T02:20:37;29.87;;;22.20;;
8409;SDS011;4242;53.670;10.080;2022-09-09T02:23:04;32.27;;;23.87;;
8409;SDS011;4242;53.670;10.080;2022-09-09T02:25:30;28.60;;;22.60;;
8409;SDS011;4242;53.670;10.080;2022-09-09T02:27:58;29.83;;;23.27;;
8409;SDS011;4242;53.670;10.080;2022-09-09T02:30:25;28.67;;;23.50;;
8409;SDS011;4242;53.670;10.080;2022-09-09T02:32:54;33.10;;;24.10;;
8409;SDS011;4242;53.670;10.080;2022-09-09T02:35:22;28.67;;;23.43;;
8409;SDS011;4242;53.670;10.080;2022-09-09T02:37:53;26.77;;;21.33;;
8409;SDS011;4242;53.670;10.080;2022-09-09T02:40:20;30.87;;;23.10;;
8409;SDS011;4242;53.670;10.080;2022-09-09T02:42:47;27.23;;;21.87;;
8409;SDS011;4242;53.670;10.080;2022-09-09T02:45:14;27.60;;;22.87;;
8409;SDS011;4242;53.670;10.080;2022-09-09T02:55:35;28.10;;;22.60;;
8409;SDS011;4242;53.670;10.080;2022-09-09T02:58:04;28.47;;;22.10;;
8409;SDS011;4242;53.670;10.080;2022-09-09T03:00:32;29.77;;;23.00;;
8409;SDS011;4242;53.670;10.080;2022-09-09T03:02:58;29.13;;;23.90;;
8409;SDS011;4242;53.670;10.080;2022-09-09T03:05:24;25.57;;;21.23;;
8409;SDS011;4242;53.670;10.080;2022-09-09T03:07:51;25.53;;;21.10;;
8409;SDS011;4242;53.670;10.080;2022-09-09T03:10:17;27.53;;;22.00;;
8409;SDS011;4242;53.670;10.080;2022-09-09T03:12:43;28.97;;;21.63;;
8409;SDS011;4242;53.670;10.080;2022-09-09T03:15:09;27.80;;;23.00;;
8409;SDS011;4242;53.670;10.080;2022-09-09T03:17:36;26.30;;;21.63;;
8409;SDS011;4242;53.670;10.080;2022-09-09T03:20:03;28.90;;;23.60;;
8409;SDS011;4242;53.670;10.080;2022-09-09T03:22:29;27.23;;;22.63;;
8409;SDS011;4242;53.670;10.080;2022-09-09T03:24:55;32.87;;;23.23;;
8409;SDS011;4242;53.670;10.080;2022-09-09T03:27:21;34.87;;;23.27;;
8409;SDS011;4242;53.670;10.080;2022-09-09T03:29:46;28.23;;;23.43;;
8409;SDS011;4242;53.670;10.080;2022-09-09T03:32:15;29.87;;;23.30;;
8409;SDS011;4242;53.670;10.080;2022-09-09T03:34:42;34.47;;;23.00;;
8409;SDS011;4242;53.670;10.080;2022-09-09T03:37:08;26.87;;;21.40;;
8409;SDS011;4242;53.670;10.080;2022-09-09T03:39:34;30.23;;;23.07;;
8409;SDS011;4242;53.670;10.080;2022-09-09T03:42:00;29.53;;;22.93;;
8409;SDS011;4242;53.670;10.080;2022-09-09T03:44:30;27.33;;;22.07;;
8409;SDS011;4242;53.670;10.080;2022-09-09T03:46:56;27.60;;;22.70;;
8409;SDS011;4242;53.670;10.080;2022-09-09T03:49:24;27.67;;;22.97;;
8409;SDS011;4242;53.670;10.080;2022-09-09T03:51:53;27.03;;;22.37;;
8409;SDS011;4242;53.670;10.080;2022-09-09T03:54:19;25.90;;;21.47;;
8409;SDS011;4242;53.670;10.080;2022-09-09T03:56:45;27.57;;;22.17;;
8409;SDS011;4242;53.670;10.080;2022-09-09T03:59:11;26.07;;;21.07;;
8409;SDS011;4242;53.670;10.080;2022-09-09T04:01:37;27.90;;;19.67;;
8409;SDS011;4242;53.670;10.080;2022-09-09T04:04:03;27.57;;;21.33;;
8409;SDS011;4242;53.670;10.080;2022-09-09T04:06:29;24.63;;;19.97;;
8409;SDS011;4242;53.670;10.080;2022-09-09T04:08:55;26.80;;;20.50;;
8409;SDS011;4242;53.670;10.080;2022-09-09T04:11:21;24.53;;;20.97;;
8409;SDS011;4242;53.670;10.080;2022-09-09T04:13:47;23.70;;;19.27;;
8409;SDS011;4242;53.670;10.080;2022-09-09T04:16:14;22.97;;;19.53;;
8409;SDS011;4242;53.670;10.080;2022-09-09T04:18:40;23.57;;;19.40;;
8409;SDS011;4242;53.670;10.080;2022-09-09T04:21:06;22.73;;;19.40;;
8409;SDS011;4242;53.670;10.080;2022-09-09T04:23:33;22.60;;;19.33;;
8409;SDS011;4242;53.670;10.080;2022-09-09T04:26:00;24.40;;;20.60;;
8409;SDS011;4242;53.670;10.080;2022-09-09T04:28:27;23.67;;;20.17;;
8409;SDS011;4242;53.670;10.080;2022-09-09T04:30:53;23.03;;;19.87;;
8409;SDS011;4242;53.670;10.080;2022-09-09T04:33:20;27.43;;;21.27;;
8409;SDS011;4242;53.670;10.080;2022-09-09T04:35:47;20.63;;;18.03;;
8409;SDS011;4242;53.670;10.080;2022-09-09T04:38:13;23.27;;;19.53;;
8409;SDS011;4242;53.670;10.080;2022-09-09T04:40:43;22.10;;;18.50;;
8409;SDS011;4242;53.670;10.080;2022-09-09T04:43:09;21.97;;;19.23;;
8409;SDS011;4242;53.670;10.080;2022-09-09T04:45:35;23.63;;;18.83;;
8409;SDS011;4242;53.670;10.080;2022-09-09T04:48:02;22.70;;;18.93;;
8409;SDS011;4242;53.670;10.080;2022-09-09T04:50:28;23.23;;;19.20;;
8409;SDS011;4242;53.670;10.080;2022-09-09T04:52:54;20.57;;;18.40;;
8409;SDS011;4242;53.670;10.080;2022-09-09T04:55:20;20.33;;;17.97;;
8409;SDS011;4242;53.670;10.080;2022-09-09T04:57:46;22.43;;;18.47;;
8409;SDS011;4242;53.670;10.080;2022-09-09T05:00:13;21.77;;;17.97;;
8409;SDS011;4242;53.670;10.080;2022-09-09T05:02:39;20.77;;;17.87;;
8409;SDS011;4242;53.670;10.080;2022-09-09T05:05:06;20.40;;;16.80;;
8409;SDS011;4242;53.670;10.080;2022-09-09T05:07:32;17.03;;;15.23;;
8409;SDS011;4242;53.670;10.080;2022-09-09T05:09:58;18.57;;;15.30;;
8409;SDS011;4242;53.670;10.080;2022-09-09T05:12:24;16.90;;;15.30;;
8409;SDS011;4242;53.670;10.080;2022-09-09T05:14:53;16.63;;;14.80;;
8409;SDS011;4242;53.670;10.080;2022-09-09T05:17:19;15.50;;;14.03;;
8409;SDS011;4242;53.670;10.080;2022-09-09T05:19:46;15.07;;;13.57;;
8409;SDS011;4242;53.670;10.080;2022-09-09T05:22:12;15.10;;;13.57;;
8409;SDS011;4242;53.670;10.080;2022-09-09T05:24:38;14.83;;;13.23;;
8409;SDS011;4242;53.670;10.080;2022-09-09T05:27:04;12.53;;;11.33;;
8409;SDS011;4242;53.670;10.080;2022-09-09T05:29:30;15.23;;;11.70;;
8409;SDS011;4242;53.670;10.080;2022-09-09T05:31:58;13.80;;;12.30;;
8409;SDS011;4242;53.670;10.080;2022-09-09T05:34:24;14.20;;;11.60;;
8409;SDS011;4242;53.670;10.080;2022-09-09T05:36:50;13.37;;;11.97;;
8409;SDS011;4242;53.670;10.080;2022-09-09T05:39:17;16.43;;;12.30;;
8409;SDS011;4242;53.670;10.080;2022-09-09T05:41:43;12.73;;;11.43;;
8409;SDS011;4242;53.670;10.080;2022-09-09T05:44:09;12.53;;;11.10;;
8409;SDS011;4242;53.670;10.080;2022-09-09T05:46:35;12.40;;;11.30;;
8409;SDS011;4242;53.670;10.080;2022-09-09T05:49:01;12.10;;;11.00;;
8409;SDS011;4242;53.670;10.080;2022-09-09T05:51:28;12.23;;;10.80;;
8409;SDS011;4242;53.670;10.080;2022-09-09T05:53:57;13.27;;;10.30;;
8409;SDS011;4242;53.670;10.080;2022-09-09T05:56:24;12.27;;;10.60;;
8409;SDS011;4242;53.670;10.080;2022-09-09T05:58:51;11.67;;;10.47;;
8409;SDS011;4242;53.670;10.080;2022-09-09T06:01:19;12.07;;;10.77;;
8409;SDS011;4242;53.670;10.080;2022-09-09T06:03:46;11.07;;;9.93;;
8409;SDS011;4242;53.670;10.080;2022-09-09T06:06:14;11.03;;;9.60;;
8409;SDS011;4242;53.670;10.080;2022-09-09T06:08:40;10.87;;;9.63;;
8409;SDS011;4242;53.670;10.080;2022-09-09T06:11:09;10.73;;;9.83;;
8409;SDS011;4242;53.670;10.080;2022-09-09T06:13:36;12.07;;;9.83;;
8409;SDS011;4242;53.670;10.080;2022-09-09T06:16:04;10.40;;;9.40;;
8409;SDS011;4242;53.670;10.080;2022-09-09T06:18:32;10.63;;;9.53;;
8409;SDS011;4242;53.670;10.080;2022-09-09T06:20:58;10.13;;;9.13;;
8409;SDS011;4242;53.670;10.080;2022-09-09T06:23:26;10.67;;;9.57;;
8409;SDS011;4242;53.670;10.080;2022-09-09T06:26:00;10.50;;;9.40;;
8409;SDS011;4242;53.670;10.080;2022-09-09T06:28:26;10.33;;;9.30;;
8409;SDS011;4242;53.670;10.080;2022-09-09T06:30:59;9.67;;;8.77;;
8409;SDS011;4242;53.670;10.080;2022-09-09T06:33:25;8.43;;;7.57;;
8409;SDS011;4242;53.670;10.080;2022-09-09T06:35:53;9.27;;;8.33;;
8409;SDS011;4242;53.670;10.080;2022-09-09T06:38:20;8.67;;;7.87;;
8409;SDS011;4242;53.670;10.080;2022-09-09T06:40:53;10.27;;;8.47;;
8409;SDS011;4242;53.670;10.080;2022-09-09T06:43:20;8.77;;;7.87;;
8409;SDS011;4242;53.670;10.080;2022-09-09T06:45:56;8.37;;;7.20;;
8409;SDS011;4242;53.670;10.080;2022-09-09T06:48:23;10.30;;;7.47;;
8409;SDS011;4242;53.670;10.080;2022-09-09T06:50:50;9.10;;;8.13;;
8409;SDS011;4242;53.670;10.080;2022-09-09T06:53:17;8.83;;;7.90;;
8409;SDS011;4242;53.670;10.080;2022-09-09T06:55:44;9.67;;;7.83;;
8409;SDS011;4242;53.670;10.080;2022-09-09T06:58:10;9.40;;;6.50;;
8409;SDS011;4242;53.670;10.080;2022-09-09T07:00:36;7.77;;;6.97;;
8409;SDS011;4242;53.670;10.080;2022-09-09T07:03:03;8.77;;;6.83;;
8409;SDS011;4242;53.670;10.080;2022-09-09T07:05:31;10.43;;;7.13;;
8409;SDS011;4242;53.670;10.080;2022-09-09T07:07:57;8.43;;;7.10;;
8409;SDS011;4242;53.670;10.080;2022-09-09T07:10:23;7.73;;;6.93;;
8409;SDS011;4242;53.670;10.080;2022-09-09T07:12:52;7.23;;;6.50;;
8409;SDS011;4242;53.670;10.080;2022-09-09T07:15:19;8.87;;;6.57;;
8409;SDS011;4242;53.670;10.080;2022-09-09T07:17:47;7.73;;;7.00;;
8409;SDS011;4242;53.670;10.080;2022-09-09T07:20:13;7.27;;;6.57;;
8409;SDS011;4242;53.670;10.080;2022-09-09T07:22:40;9.07;;;7.13;;
8409;SDS011;4242;53.670;10.080;2022-09-09T07:25:06;8.60;;;6.53;;
8409;SDS011;4242;53.670;10.080;2022-09-09T07:27:32;10.47;;;6.40;;
8409;SDS011;4242;53.670;10.080;2022-09-09T07:29:58;9.53;;;6.97;;
8409;SDS011;4242;53.670;10.080;2022-09-09T07:32:24;7.17;;;5.97;;
8409;SDS011;4242;53.670;10.080;2022-09-09T07:34:51;7.70;;;6.90;;
8409;SDS011;4242;53.670;10.080;2022-09-09T07:37:17;8.97;;;6.40;;
8409;SDS011;4242;53.670;10.080;2022-09-09T07:39:43;7.53;;;6.23;;
8409;SDS011;4242;53.670;10.080;2022-09-09T07:42:09;6.87;;;6.20;;
8409;SDS011;4242;53.670;10.080;2022-09-09T07:44:36;6.43;;;5.70;;
8409;SDS011;4242;53.670;10.080;2022-09-09T07:47:04;7.73;;;5.67;;
8409;SDS011;4242;53.670;10.080;2022-09-09T07:49:30;6.57;;;5.80;;
8409;SDS011;4242;53.670;10.080;2022-09-09T07:51:57;7.53;;;5.53;;
8409;SDS011;4242;53.670;10.080;2022-09-09T07:54:23;8.47;;;5.47;;
8409;SDS011;4242;53.670;10.080;2022-09-09T07:56:49;6.93;;;5.43;;
8409;SDS011;4242;53.670;10.080;2022-09-09T07:59:16;5.37;;;4.60;;
8409;SDS011;4242;53.670;10.080;2022-09-09T08:01:44;6.00;;;5.10;;
8409;SDS011;4242;53.670;10.080;2022-09-09T08:04:12;6.93;;;4.40;;
8409;SDS011;4242;53.670;10.080;2022-09-09T08:06:49;5.70;;;4.60;;
8409;SDS011;4242;53.670;10.080;2022-09-09T08:09:17;5.83;;;4.63;;
8409;SDS011;4242;53.670;10.080;2022-09-09T08:11:43;6.53;;;4.27;;
8409;SDS011;4242;53.670;10.080;2022-09-09T08:14:09;4.60;;;4.17;;
8409;SDS011;4242;53.670;10.080;2022-09-09T08:16:37;6.50;;;5.00;;
8409;SDS011;4242;53.670;10.080;2022-09-09T08:19:03;7.63;;;4.97;;
8409;SDS011;4242;53.670;10.080;2022-09-09T08:21:32;5.40;;;4.73;;
8409;SDS011;4242;53.670;10.080;2022-09-09T08:23:59;6.47;;;4.93;;
8409;SDS011;4242;53.670;10.080;2022-09-09T08:26:31;4.67;;;4.23;;
8409;SDS011;4242;53.670;10.080;2022-09-09T08:28:59;6.50;;;4.83;;
8409;SDS011;4242;53.670;10.080;2022-09-09T08:31:27;5.73;;;4.60;;
8409;SDS011;4242;53.670;10.080;2022-09-09T08:33:53;8.27;;;4.87;;
8409;SDS011;4242;53.670;10.080;2022-09-09T08:36:20;4.57;;;4.17;;
8409;SDS011;4242;53.670;10.080;2022-09-09T08:38:47;8.07;;;4.53;;
8409;SDS011;4242;53.670;10.080;2022-09-09T08:44:06;4.50;;;4.10;;
8409;SDS011;4242;53.670;10.080;2022-09-09T08:46:56;7.53;;;4.60;;
8409;SDS011;4242;53.670;10.080;2022-09-09T08:51:54;8.27;;;4.17;;
8409;SDS011;4242;53.670;10.080;2022-09-09T08:54:22;6.67;;;3.80;;
8409;SDS011;4242;53.670;10.080;2022-09-09T08:56:48;4.00;;;3.60;;
8409;SDS011;4242;53.670;10.080;2022-09-09T08:59:15;5.87;;;4.00;;
8409;SDS011;4242;53.670;10.080;2022-09-09T09:09:46;6.97;;;3.80;;
8409;SDS011;4242;53.670;10.080;2022-09-09T09:12:23;3.50;;;2.70;;
8409;SDS011;4242;53.670;10.080;2022-09-09T09:14:50;5.20;;;3.60;;
8409;SDS011;4242;53.670;10.080;2022-09-09T09:19:42;3.67;;;3.17;;
8409;SDS011;4242;53.670;10.080;2022-09-09T09:22:17;5.23;;;3.30;;
8409;SDS011;4242;53.670;10.080;2022-09-09T09:24:51;7.23;;;2.63;;
8409;SDS011;4242;53.670;10.080;2022-09-09T09:29:53;3.93;;;2.77;;
8409;SDS011;4242;53.670;10.080;2022-09-09T09:32:21;3.83;;;3.30;;
8409;SDS011;4242;53.670;10.080;2022-09-09T09:34:51;6.93;;;2.90;;
8409;SDS011;4242;53.670;10.080;2022-09-09T09:37:31;3.33;;;3.03;;
8409;SDS011;4242;53.670;10.080;2022-09-09T09:40:08;4.53;;;2.63;;
8409;SDS011;4242;53.670;10.080;2022-09-09T09:42:34;4.50;;;2.67;;
8409;SDS011;4242;53.670;10.080;2022-09-09T09:45:07;4.43;;;2.57;;
8409;SDS011;4242;53.670;10.080;2022-09-09T09:47:35;6.10;;;2.23;;
8409;SDS011;4242;53.670;10.080;2022-09-09T09:50:01;6.40;;;2.70;;
8409;SDS011;4242;53.670;10.080;2022-09-09T09:52:28;3.53;;;2.60;;
8409;SDS011;4242;53.670;10.080;2022-09-09T09:54:55;4.07;;;2.20;;
8409;SDS011;4242;53.670;10.080;2022-09-09T09:57:28;2.57;;;2.37;;
8409;SDS011;4242;53.670;10.080;2022-09-09T10:00:03;2.70;;;2.27;;
8409;SDS011;4242;53.670;10.080;2022-09-09T10:02:37;2.57;;;2.37;;
8409;SDS011;4242;53.670;10.080;2022-09-09T10:05:14;2.43;;;2.13;;
8409;SDS011;4242;53.670;10.080;2022-09-09T10:07:40;3.20;;;1.87;;
8409;SDS011;4242;53.670;10.080;2022-09-09T10:10:11;5.57;;;2.37;;
8409;SDS011;4242;53.670;10.080;2022-09-09T10:12:48;5.27;;;2.47;;
8409;SDS011;4242;53.670;10.080;2022-09-09T10:15:24;3.43;;;2.30;;
8409;SDS011;4242;53.670;10.080;2022-09-09T10:20:27;3.97;;;1.80;;
8409;SDS011;4242;53.670;10.080;2022-09-09T10:26:03;2.17;;;1.87;;
8409;SDS011;4242;53.670;10.080;2022-09-09T10:28:50;9.70;;;3.53;;
8409;SDS011;4242;53.670;10.080;2022-09-09T10:33:51;4.57;;;2.07;;
8409;SDS011;4242;53.670;10.080;2022-09-09T10:36:21;3.83;;;1.80;;
8409;SDS011;4242;53.670;10.080;2022-09-09T10:39:15;2.90;;;1.52;;
8409;SDS011;4242;53.670;10.080;2022-09-09T10:41:40;2.10;;;1.20;;
8409;SDS011;4242;53.670;10.080;2022-09-09T10:44:21;1.97;;;1.30;;
8409;SDS011;4242;53.670;10.080;2022-09-09T10:47:14;1.30;;;1.30;;
8409;SDS011;4242;53.670;10.080;2022-09-09T10:49:57;5.40;;;1.60;;
8409;SDS011;4242;53.670;10.080;2022-09-09T10:55:14;4.37;;;1.40;;
8409;SDS011;4242;53.670;10.080;2022-09-09T10:57:43;1.92;;;1.25;;
8409;SDS011;4242;53.670;10.080;2022-09-09T11:00:52;1.50;;;1.02;;
8409;SDS011;4242;53.670;10.080;2022-09-09T11:03:00;1.77;;;1.25;;
8409;SDS011;4242;53.670;10.080;2022-09-09T11:05:40;1.63;;;1.27;;
8409;SDS011;4242;53.670;10.080;2022-09-09T11:08:18;4.60;;;1.30;;
8409;SDS011;4242;53.670;10.080;2022-09-09T11:10:45;2.07;;;1.40;;
8409;SDS011;4242;53.670;10.080;2022-09-09T11:13:22;1.50;;;1.23;;
8409;SDS011;4242;53.670;10.080;2022-09-09T11:15:52;1.45;;;1.27;;
8409;SDS011;4242;53.670;10.080;2022-09-09T11:18:19;1.38;;;1.17;;
8409;SDS011;4242;53.670;10.080;2022-09-09T11:20:47;2.80;;;1.30;;
8409;SDS011;4242;53.670;10.080;2022-09-09T11:23:25;3.42;;;1.38;;
8409;SDS011;4242;53.670;10.080;2022-09-09T11:25:56;1.30;;;0.90;;
8409;SDS011;4242;53.670;10.080;2022-09-09T11:28:49;1.25;;;0.90;;
8409;SDS011;4242;53.670;10.080;2022-09-09T11:31:37;3.35;;;1.40;;
8409;SDS011;4242;53.670;10.080;2022-09-09T11:36:43;3.65;;;1.10;;
8409;SDS011;4242;53.670;10.080;2022-09-09T11:39:29;1.92;;;1.10;;
8409;SDS011;4242;53.670;10.080;2022-09-09T11:42:18;4.38;;;1.10;;
8409;SDS011;4242;53.670;10.080;2022-09-09T11:44:44;2.15;;;1.00;;
8409;SDS011;4242;53.670;10.080;2022-09-09T11:47:27;2.75;;;1.10;;
8409;SDS011;4242;53.670;10.080;2022-09-09T11:50:10;2.92;;;1.23;;
8409;SDS011;4242;53.670;10.080;2022-09-09T11:52:39;2.25;;;1.10;;
8409;SDS011;4242;53.670;10.080;2022-09-09T11:55:24;2.75;;;1.38;;
8409;SDS011;4242;53.670;10.080;2022-09-09T11:57:57;2.35;;;1.20;;
8409;SDS011;4242;53.670;10.080;2022-09-09T12:00:29;2.55;;;1.20;;
8409;SDS011;4242;53.670;10.080;2022-09-09T12:02:57;2.08;;;1.15;;
8409;SDS011;4242;53.670;10.080;2022-09-09T12:05:23;2.70;;;1.00;;
8409;SDS011;4242;53.670;10.080;2022-09-09T12:08:01;1.83;;;0.90;;
8409;SDS011;4242;53.670;10.080;2022-09-09T12:10:33;2.92;;;1.23;;
8409;SDS011;4242;53.670;10.080;2022-09-09T12:13:08;1.30;;;0.90;;
8409;SDS011;4242;53.670;10.080;2022-09-09T12:15:34;1.45;;;1.10;;
8409;SDS011;4242;53.670;10.080;2022-09-09T12:18:00;1.80;;;1.05;;
8409;SDS011;4242;53.670;10.080;2022-09-09T12:28:20;2.97;;;1.50;;
8409;SDS011;4242;53.670;10.080;2022-09-09T12:30:56;2.30;;;1.13;;
8409;SDS011;4242;53.670;10.080;2022-09-09T12:33:24;3.17;;;1.33;;
8409;SDS011;4242;53.670;10.080;2022-09-09T12:35:51;2.20;;;1.23;;
8409;SDS011;4242;53.670;10.080;2022-09-09T12:38:22;2.03;;;1.05;;
8409;SDS011;4242;53.670;10.080;2022-09-09T12:40:58;1.52;;;1.10;;
8409;SDS011;4242;53.670;10.080;2022-09-09T12:43:25;1.50;;;1.00;;
8409;SDS011;4242;53.670;10.080;2022-09-09T12:46:02;3.22;;;1.35;;
8409;SDS011;4242;53.670;10.080;2022-09-09T12:48:31;2.38;;;1.20;;
8409;SDS011;4242;53.670;10.080;2022-09-09T12:50:58;2.17;;;1.20;;
8409;SDS011;4242;53.670;10.080;2022-09-09T12:53:26;2.72;;;1.33;;
8409;SDS011;4242;53.670;10.080;2022-09-09T12:56:38;3.17;;;1.30;;
8409;SDS011;4242;53.670;10.080;2022-09-09T12:58:39;1.23;;;1.13;;
8409;SDS011;4242;53.670;10.080;2022-09-09T13:01:18;1.35;;;0.88;;
8409;SDS011;4242;53.670;10.080;2022-09-09T13:03:46;3.03;;;1.23;;
8409;SDS011;4242;53.670;10.080;2022-09-09T13:06:13;1.98;;;1.20;;
8409;SDS011;4242;53.670;10.080;2022-09-09T13:08:39;2.75;;;1.33;;
8409;SDS011;4242;53.670;10.080;2022-09-09T13:11:11;1.75;;;1.25;;
8409;SDS011;4242;53.670;10.080;2022-09-09T13:13:39;3.47;;;1.55;;
8409;SDS011;4242;53.670;10.080;2022-09-09T13:16:06;3.50;;;1.23;;
8409;SDS011;4242;53.670;10.080;2022-09-09T13:18:42;2.53;;;1.17;;
8409;SDS011;4242;53.670;10.080;2022-09-09T13:21:08;3.72;;;1.50;;
8409;SDS011;4242;53.670;10.080;2022-09-09T13:23:35;1.63;;;1.50;;
8409;SDS011;4242;53.670;10.080;2022-09-09T13:26:06;3.70;;;1.58;;
8409;SDS011;4242;53.670;10.080;2022-09-09T13:28:33;1.60;;;1.23;;
8409;SDS011;4242;53.670;10.080;2022-09-09T13:31:18;3.40;;;1.52;;
8409;SDS011;4242;53.670;10.080;2022-09-09T13:33:45;3.83;;;1.40;;
8409;SDS011;4242;53.670;10.080;2022-09-09T13:36:11;2.40;;;1.35;;
8409;SDS011;4242;53.670;10.080;2022-09-09T13:39:00;2.65;;;1.35;;
8409;SDS011;4242;53.670;10.080;2022-09-09T13:41:27;2.28;;;1.30;;
8409;SDS011;4242;53.670;10.080;2022-09-09T13:43:55;2.92;;;1.38;;
8409;SDS011;4242;53.670;10.080;2022-09-09T13:49:01;4.68;;;1.50;;
8409;SDS011;4242;53.670;10.080;2022-09-09T13:51:30;2.35;;;1.52;;
8409;SDS011;4242;53.670;10.080;2022-09-09T13:53:58;3.85;;;1.60;;
8409;SDS011;4242;53.670;10.080;2022-09-09T13:56:25;3.10;;;1.40;;
8409;SDS011;4242;53.670;10.080;2022-09-09T13:58:51;2.40;;;1.40;;
8409;SDS011;4242;53.670;10.080;2022-09-09T14:01:17;2.67;;;1.50;;
8409;SDS011;4242;53.670;10.080;2022-09-09T14:03:43;3.40;;;1.60;;
8409;SDS011;4242;53.670;10.080;2022-09-09T14:06:09;2.30;;;1.77;;
8409;SDS011;4242;53.670;10.080;2022-09-09T14:08:35;4.43;;;2.00;;
8409;SDS011;4242;53.670;10.080;2022-09-09T14:11:05;4.50;;;2.17;;
8409;SDS011;4242;53.670;10.080;2022-09-09T14:13:31;5.13;;;2.07;;
8409;SDS011;4242;53.670;10.080;2022-09-09T14:15:57;9.10;;;2.30;;
8409;SDS011;4242;53.670;10.080;2022-09-09T14:18:23;4.17;;;2.00;;
8409;SDS011;4242;53.670;10.080;2022-09-09T14:20:50;3.60;;;1.90;;
8409;SDS011;4242;53.670;10.080;2022-09-09T14:23:16;5.10;;;1.93;;
8409;SDS011;4242;53.670;10.080;2022-09-09T14:25:43;3.77;;;2.10;;
8409;SDS011;4242;53.670;10.080;2022-09-09T14:28:10;2.27;;;1.60;;
8409;SDS011;4242;53.670;10.080;2022-09-09T14:30:37;5.57;;;2.20;;
8409;SDS011;4242;53.670;10.080;2022-09-09T14:33:03;4.43;;;1.80;;
8409;SDS011;4242;53.670;10.080;2022-09-09T14:35:29;2.70;;;1.80;;
8409;SDS011;4242;53.670;10.080;2022-09-09T14:37:55;2.87;;;2.30;;
8409;SDS011;4242;53.670;10.080;2022-09-09T14:40:21;3.37;;;2.20;;
8409;SDS011;4242;53.670;10.080;2022-09-09T14:42:47;3.13;;;1.97;;
8409;SDS011;4242;53.670;10.080;2022-09-09T14:45:13;3.63;;;2.03;;
8409;SDS011;4242;53.670;10.080;2022-09-09T14:47:39;5.27;;;1.90;;
8409;SDS011;4242;53.670;10.080;2022-09-09T14:50:05;6.20;;;2.37;;
8409;SDS011;4242;53.670;10.080;2022-09-09T14:52:33;5.67;;;2.33;;
8409;SDS011;4242;53.670;10.080;2022-09-09T14:54:58;3.40;;;1.90;;
8409;SDS011;4242;53.670;10.080;2022-09-09T14:57:24;5.03;;;2.13;;
8409;SDS011;4242;53.670;10.080;2022-09-09T14:59:50;3.90;;;2.20;;
8409;SDS011;4242;53.670;10.080;2022-09-09T15:02:16;5.53;;;2.20;;
8409;SDS011;4242;53.670;10.080;2022-09-09T15:04:42;4.43;;;2.13;;
8409;SDS011;4242;53.670;10.080;2022-09-09T15:07:09;2.63;;;1.80;;
8409;SDS011;4242;53.670;10.080;2022-09-09T15:09:35;2.67;;;1.80;;
8409;SDS011;4242;53.670;10.080;2022-09-09T15:12:02;4.20;;;2.00;;
8409;SDS011;4242;53.670;10.080;2022-09-09T15:14:29;4.03;;;1.70;;
8409;SDS011;4242;53.670;10.080;2022-09-09T15:16:55;2.73;;;1.87;;
8409;SDS011;4242;53.670;10.080;2022-09-09T15:19:21;3.63;;;1.80;;
8409;SDS011;4242;53.670;10.080;2022-09-09T15:21:47;3.00;;;1.80;;
8409;SDS011;4242;53.670;10.080;2022-09-09T15:24:14;3.07;;;2.07;;
8409;SDS011;4242;53.670;10.080;2022-09-09T15:26:41;1.57;;;1.43;;
8409;SDS011;4242;53.670;10.080;2022-09-09T15:29:07;3.23;;;1.70;;
8409;SDS011;4242;53.670;10.080;2022-09-09T15:31:33;4.20;;;1.70;;
8409;SDS011;4242;53.670;10.080;2022-09-09T15:34:06;5.00;;;1.67;;
8409;SDS011;4242;53.670;10.080;2022-09-09T15:36:42;2.10;;;1.47;;
8409;SDS011;4242;53.670;10.080;2022-09-09T15:39:09;3.13;;;1.57;;
8409;SDS011;4242;53.670;10.080;2022-09-09T15:41:37;1.97;;;1.50;;
8409;SDS011;4242;53.670;10.080;2022-09-09T15:44:04;3.07;;;1.57;;
8409;SDS011;4242;53.670;10.080;2022-09-09T15:46:37;3.93;;;1.60;;
8409;SDS011;4242;53.670;10.080;2022-09-09T15:49:22;1.60;;;1.50;;
8409;SDS011;4242;53.670;10.080;2022-09-09T15:51:52;1.90;;;1.50;;
8409;SDS011;4242;53.670;10.080;2022-09-09T15:54:19;1.83;;;1.30;;
8409;SDS011;4242;53.670;10.080;2022-09-09T15:56:49;2.00;;;1.50;;
8409;SDS011;4242;53.670;10.080;2022-09-09T15:59:15;2.10;;;1.10;;
8409;SDS011;4242;53.670;10.080;2022-09-09T16:01:41;1.13;;;1.03;;
8409;SDS011;4242;53.670;10.080;2022-09-09T16:04:08;3.27;;;1.50;;
8409;SDS011;4242;53.670;10.080;2022-09-09T16:06:34;2.07;;;1.20;;
8409;SDS011;4242;53.670;10.080;2022-09-09T16:09:02;2.45;;;1.50;;
8409;SDS011;4242;53.670;10.080;2022-09-09T16:11:30;4.03;;;1.65;;
8409;SDS011;4242;53.670;10.080;2022-09-09T16:13:56;2.42;;;1.30;;
8409;SDS011;4242;53.670;10.080;2022-09-09T16:16:24;3.25;;;1.42;;
8409;SDS011;4242;53.670;10.080;2022-09-09T16:18:51;4.13;;;1.30;;
8409;SDS011;4242;53.670;10.080;2022-09-09T16:21:22;2.45;;;1.60;;
8409;SDS011;4242;53.670;10.080;2022-09-09T16:23:52;2.83;;;1.20;;